1882 Cyclonic Storm NOT_NAMED (1882249N20090)


IBTrACS version v04r00. Visit IBTrACS website for data access.
Please direct all questions to the IBTrACS Q and A forum

Storm track - Intensity - Wind Radii - Intensity Data - Source Data - All data

Summary Information

Storm ID 1882249N20090
Start Sep 6 00Z
Landfall Sep 7 21Z
Max Intensity 45 kt (Sep 6 03Z)
End Sep 15 03Z
ATCF IDs
Track status Best track data.

Storm track plot

Map of storm track

Intensity plots

Map of storm track

Radial wind information

No radial wind information for this storm


Position and Intensity Table

BASIN ISO_TIME_________ NATURE LAT LON DS824 WIND
degrees north degrees east kts
NI 1882-09-06 00:00:00 TS 19.50 89.70 45
NI 03:00:00 TS 19.50 89.70 45
NI 06:00:00 TS 19.50 89.69 45
NI 09:00:00 TS 19.50 89.68 45
NI 12:00:00 TS 19.50 89.68 45
NI 15:00:00 TS 19.50 89.70 45
NI 18:00:00 TS 19.49 89.74 45
NI 21:00:00 TS 19.48 89.81 45
NI 1882-09-07 00:00:00 TS 19.49 89.78 45
NI 03:00:00 TS 19.52 89.55 45
NI 06:00:00 TS 19.57 89.11 45
NI 09:00:00 TS 19.65 88.50 45
NI 12:00:00 TS 19.75 87.82 45
NI 15:00:00 TS 19.87 87.19 41
NI 18:00:00 TS 20.02 86.61 37
NI 21:00:00 TS 20.19 86.05 33
NI 1882-09-08 00:00:00 TS 20.33 85.49 30
NI 03:00:00 TS 20.43 84.92 30
NI 06:00:00 TS 20.48 84.37 30
NI 09:00:00 TS 20.52 83.83 30
NI 12:00:00 TS 20.57 83.28 30
NI 15:00:00 TS 20.67 82.70 30
NI 18:00:00 TS 20.82 82.08 30
NI 21:00:00 TS 20.99 81.44 30
NI 1882-09-09 00:00:00 TS 21.14 80.92 30
NI 03:00:00 TS 21.24 80.64 30
NI 06:00:00 TS 21.28 80.54 30
NI 09:00:00 TS 21.29 80.46 30
NI 12:00:00 TS 21.30 80.40 30
NI 15:00:00 TS 21.32 80.35 30
NI 18:00:00 TS 21.35 80.28 30
NI 21:00:00 TS 21.34 80.23 30
NI 1882-09-10 00:00:00 TS 21.37 80.10 30
NI 03:00:00 TS 21.46 79.80 30
NI 06:00:00 TS 21.61 79.38 30
NI 09:00:00 TS 21.79 78.97 30
NI 12:00:00 TS 21.99 78.54 30
NI 15:00:00 TS 22.19 78.10 30
NI 18:00:00 TS 22.41 77.68 30
NI 21:00:00 TS 22.69 77.26 30
NI 1882-09-11 00:00:00 TS 22.97 76.87 30
NI 03:00:00 TS 23.23 76.56 30
NI 06:00:00 TS 23.47 76.31 30
NI 09:00:00 TS 23.72 76.09 30
NI 12:00:00 TS 23.97 75.89 30
NI 15:00:00 TS 24.22 75.70 30
NI 18:00:00 TS 24.46 75.51 30
NI 21:00:00 TS 24.69 75.35 30
NI 1882-09-12 00:00:00 TS 24.95 75.19 30
NI 03:00:00 TS 25.29 75.00 30
NI 06:00:00 TS 25.68 74.80 30
NI 09:00:00 TS 26.11 74.59 30
NI 12:00:00 TS 26.57 74.39 30
NI 15:00:00 TS 27.02 74.22 30
NI 18:00:00 TS 27.50 74.06 30
NI 21:00:00 TS 28.01 73.90 30
NI 1882-09-13 00:00:00 TS 28.49 73.76 30
NI 03:00:00 TS 28.84 73.64 30
NI 06:00:00 TS 29.11 73.55 30
NI 09:00:00 TS 29.40 73.48 30
NI 12:00:00 TS 29.68 73.43 30
NI 15:00:00 TS 29.95 73.37 30
NI 18:00:00 TS 30.24 73.32 30
NI 21:00:00 TS 30.54 73.27 30
NI 1882-09-14 00:00:00 TS 30.84 73.22 30
NI 03:00:00 TS 31.15 73.17 30
NI 06:00:00 TS 31.46 73.12 30
NI 09:00:00 TS 31.80 73.06 30
NI 12:00:00 TS 32.14 73.02 30
NI 15:00:00 TS 32.45 73.00 30
NI 18:00:00 TS 32.73 72.99 30
NI 21:00:00 TS 33.03 72.99 30
NI 1882-09-15 00:00:00 TS 33.31 72.99 30
NI 03:00:00 NR 33.50 73.00

Source Information

Agency Information
USA
TOKYO
CMA
HKO
NEWDELHI
REUNION
BOM
NADI
WELLINGTON
DS824 n_ind.dat:55:NOT NAMED
TD9636 cons_worldwide_trop_cyclone_18710101-19891231-004:Line=503
TD9635
NEUMANN
MLC

All available IBTrACS Data

SEASON BASIN SUBBASIN ISO_TIME_________ NATURE LAT LON DIST2LAND LANDFALL IFLAG USA SSHS DS824 LAT DS824 LON DS824 STAGE DS824 WIND TD9636 LAT TD9636 LON TD9636 STAGE STORM SPEED STORM DIR
Year degrees north degrees east km km 1 degrees north degrees east kts degrees north degrees east kts degrees
1882 NI BB 1882-09-06 00:00:00 TS 19.50 89.70 243 243 _________O____ -1 19.50 89.70 TC 45 0 0
1882 NI BB 03:00:00 TS 19.50 89.70 243 243 _________PO___ -1 19.50 89.70 TC 45 19.50 89.70 3 0 0
1882 NI BB 06:00:00 TS 19.50 89.69 243 243 _________OP___ -1 19.50 89.70 TC 45 19.50 89.67 3 0 0
1882 NI BB 09:00:00 TS 19.50 89.68 243 243 _________PP___ -1 19.50 89.70 TC 45 19.51 89.65 3 0 0
1882 NI BB 12:00:00 TS 19.50 89.68 243 243 _________OP___ -1 19.50 89.70 TC 45 19.51 89.65 3 0 0
1882 NI BB 15:00:00 TS 19.50 89.70 243 243 _________PO___ -1 19.50 89.70 TC 45 19.50 89.70 3 1 98
1882 NI BB 18:00:00 TS 19.49 89.74 243 243 _________OP___ -1 19.50 89.70 TC 45 19.49 89.79 3 1 99
1882 NI BB 21:00:00 TS 19.48 89.81 245 245 _________PP___ -1 19.49 89.76 TC 45 19.48 89.86 3 0 97
1882 NI BB 1882-09-07 00:00:00 TS 19.49 89.78 245 240 _________OP___ -1 19.50 89.70 TC 45 19.48 89.86 3 2 278
1882 NI BB 03:00:00 TS 19.52 89.55 240 223 _________PO___ -1 19.53 89.40 TC 45 19.50 89.70 3 6 277
1882 NI BB 06:00:00 TS 19.57 89.11 223 199 _________OP___ -1 19.60 88.90 TC 45 19.54 89.31 3 10 277
1882 NI BB 09:00:00 TS 19.65 88.50 199 142 _________PP___ -1 19.69 88.23 TC 45 19.61 88.77 3 12 278
1882 NI BB 12:00:00 TS 19.75 87.82 133 68 _________OP___ -1 19.80 87.50 TC 45 19.69 88.15 3 13 280
1882 NI BB 15:00:00 TS 19.87 87.19 68 20 _________PO___ -1 19.94 86.88 TC 41 19.80 87.50 3 12 284
1882 NI BB 18:00:00 TS 20.02 86.61 20 0 _________OP___ -1 20.10 86.30 TC 37 19.94 86.93 3 11 286
1882 NI BB 21:00:00 TS 20.19 86.05 0 0 _________PP___ -1 20.26 85.74 TC 33 20.11 86.35 3 11 286
1882 NI BB 1882-09-08 00:00:00 TS 20.33 85.49 0 0 _________OP___ -1 20.40 85.20 TC 30 20.27 85.77 3 11 283
1882 NI BB 03:00:00 TS 20.43 84.92 0 0 _________PO___ -1 20.46 84.65 TC 30 20.40 85.20 1 11 278
1882 NI BB 06:00:00 TS 20.48 84.37 0 0 _________OP___ -1 20.50 84.10 TC 30 20.46 84.65 1 10 275
1882 NI BB 09:00:00 TS 20.52 83.83 0 0 _________PP___ -1 20.53 83.56 TC 30 20.50 84.10 1 10 275
1882 NI BB 12:00:00 TS 20.57 83.28 0 0 _________OP___ -1 20.60 83.00 TC 30 20.54 83.55 1 11 278
1882 NI BB 15:00:00 TS 20.67 82.70 0 0 _________PO___ -1 20.73 82.40 TC 30 20.60 83.00 1 12 283
1882 NI BB 18:00:00 TS 20.82 82.08 0 0 _________OP___ -1 20.90 81.80 TC 30 20.74 82.35 1 12 285
1882 NI BB 21:00:00 TS 20.99 81.44 0 0 _________PP___ -1 21.07 81.17 TC 30 20.91 81.71 1 11 286
1882 NI BB 1882-09-09 00:00:00 TS 21.14 80.92 0 0 _________OP___ -1 21.20 80.70 TC 30 21.07 81.14 1 8 289
1882 NI BB 03:00:00 TS 21.24 80.64 0 0 _________PO___ -1 21.27 80.58 TC 30 21.20 80.70 1 4 293
1882 NI BB 06:00:00 TS 21.28 80.54 0 0 _________OP___ -1 21.30 80.60 TC 30 21.26 80.48 1 2 288
1882 NI BB 09:00:00 TS 21.29 80.46 0 0 _________PP___ -1 21.30 80.51 TC 30 21.29 80.41 1 1 278
1882 NI BB 12:00:00 TS 21.30 80.40 0 0 _________OP___ -1 21.30 80.40 TC 30 21.29 80.40 1 1 288
1882 NI BB 15:00:00 TS 21.32 80.35 0 0 _________PO___ -1 21.35 80.30 TC 30 21.30 80.40 1 1 295
1882 NI BB 18:00:00 TS 21.35 80.28 0 0 _________OP___ -1 21.40 80.20 TC 30 21.30 80.36 1 1 280
1882 NI BB 21:00:00 TS 21.34 80.23 0 0 _________PP___ -1 21.38 80.15 TC 30 21.30 80.30 1 2 275
1882 NI BB 1882-09-10 00:00:00 TS 21.37 80.10 0 0 _________OP___ -1 21.40 80.00 TC 30 21.33 80.20 1 4 286
1882 NI BB 03:00:00 TS 21.46 79.80 0 0 _________PO___ -1 21.52 79.60 TC 30 21.40 80.00 1 7 290
1882 NI BB 06:00:00 TS 21.61 79.38 0 0 _________OP___ -1 21.70 79.10 TC 30 21.52 79.66 1 8 293
1882 NI BB 09:00:00 TS 21.79 78.97 0 0 _________PP___ -1 21.89 78.69 TC 30 21.68 79.24 1 9 296
1882 NI BB 12:00:00 TS 21.99 78.54 0 0 _________OP___ -1 22.10 78.30 TC 30 21.88 78.77 1 9 297
1882 NI BB 15:00:00 TS 22.19 78.10 0 0 _________PO___ -1 22.28 77.90 TC 30 22.10 78.30 1 9 298
1882 NI AS 18:00:00 TS 22.41 77.68 0 0 _________OP___ -1 22.50 77.50 TC 30 22.33 77.86 1 9 302
1882 NI AS 21:00:00 TS 22.69 77.26 0 0 _________PP___ -1 22.79 77.08 TC 30 22.58 77.44 1 9 307
1882 NI AS 1882-09-11 00:00:00 TS 22.97 76.87 0 0 _________OP___ -1 23.10 76.70 TC 30 22.84 77.05 1 8 310
1882 NI AS 03:00:00 TS 23.23 76.56 0 0 _________PO___ -1 23.36 76.42 TC 30 23.10 76.70 1 7 314
1882 NI AS 06:00:00 TS 23.47 76.31 0 0 _________OP___ -1 23.60 76.20 TC 30 23.35 76.42 1 7 319
1882 NI AS 09:00:00 TS 23.72 76.09 0 0 _________PP___ -1 23.85 75.99 TC 30 23.60 76.18 1 6 323
1882 NI AS 12:00:00 TS 23.97 75.89 0 0 _________OP___ -1 24.10 75.80 TC 30 23.85 75.98 1 6 325
1882 NI AS 15:00:00 TS 24.22 75.70 0 0 _________PO___ -1 24.35 75.59 TC 30 24.10 75.80 1 6 324
1882 NI AS 18:00:00 TS 24.46 75.51 0 0 _________OP___ -1 24.60 75.40 TC 30 24.32 75.61 1 6 325
1882 NI AS 21:00:00 TS 24.69 75.35 0 0 _________PP___ -1 24.83 75.25 TC 30 24.55 75.44 1 6 329
1882 NI AS 1882-09-12 00:00:00 TS 24.95 75.19 0 0 _________OP___ -1 25.10 75.10 TC 30 24.80 75.27 1 7 333
1882 NI AS 03:00:00 TS 25.29 75.00 0 0 _________PO___ -1 25.47 74.91 TC 30 25.10 75.10 1 8 334
1882 NI AS 06:00:00 TS 25.68 74.80 0 0 _________OP___ -1 25.90 74.70 TC 30 25.47 74.90 1 9 336
1882 NI AS 09:00:00 TS 26.11 74.59 0 0 _________PP___ -1 26.34 74.49 TC 30 25.88 74.69 1 10 338
1882 NI AS 12:00:00 TS 26.57 74.39 0 0 _________OP___ -1 26.80 74.30 TC 30 26.33 74.49 1 10 340
1882 NI AS 15:00:00 TS 27.02 74.22 0 0 _________PO___ -1 27.24 74.14 TC 30 26.80 74.30 1 10 342
1882 NI AS 18:00:00 TS 27.50 74.06 0 0 _________OP___ -1 27.70 74.00 TC 30 27.29 74.12 1 10 344
1882 NI AS 21:00:00 TS 28.01 73.90 0 0 _________PP___ -1 28.23 73.84 TC 30 27.79 73.96 1 10 345
1882 NI AS 1882-09-13 00:00:00 TS 28.49 73.76 0 0 _________OP___ -1 28.70 73.70 TC 30 28.27 73.82 1 9 345
1882 NI AS 03:00:00 TS 28.84 73.64 0 0 _________PO___ -1 28.98 73.58 TC 30 28.70 73.70 1 7 344
1882 NI AS 06:00:00 TS 29.11 73.55 0 0 _________OP___ -1 29.20 73.50 TC 30 29.03 73.60 1 6 346
1882 NI AS 09:00:00 TS 29.40 73.48 0 0 _________PP___ -1 29.49 73.44 TC 30 29.30 73.52 1 6 349
1882 NI AS 12:00:00 TS 29.68 73.43 0 0 _________OP___ -1 29.80 73.40 TC 30 29.55 73.46 1 6 351
1882 NI AS 15:00:00 TS 29.95 73.37 0 0 _________PO___ -1 30.10 73.35 TC 30 29.80 73.40 1 6 351
1882 NI AS 18:00:00 TS 30.24 73.32 0 0 _________OP___ -1 30.40 73.30 TC 30 30.09 73.34 1 6 352
1882 NI AS 21:00:00 TS 30.54 73.27 0 0 _________PP___ -1 30.70 73.25 TC 30 30.38 73.29 1 6 352
1882 NI AS 1882-09-14 00:00:00 TS 30.84 73.22 0 0 _________OP___ -1 31.00 73.20 TC 30 30.69 73.25 1 6 352
1882 NI AS 03:00:00 TS 31.15 73.17 0 0 _________PO___ -1 31.29 73.15 TC 30 31.00 73.20 1 6 352
1882 NI AS 06:00:00 TS 31.46 73.12 0 0 _________OP___ -1 31.60 73.10 TC 30 31.32 73.14 1 7 352
1882 NI AS 09:00:00 TS 31.80 73.06 0 0 _________PP___ -1 31.95 73.04 TC 30 31.65 73.09 1 7 352
1882 NI AS 12:00:00 TS 32.14 73.02 0 0 _________OP___ -1 32.30 73.00 TC 30 31.98 73.04 1 7 355
1882 NI AS 15:00:00 TS 32.45 73.00 0 0 _________PO___ -1 32.61 72.99 TC 30 32.30 73.00 1 6 358
1882 NI AS 18:00:00 TS 32.73 72.99 0 0 _________OP___ -1 32.90 73.00 TC 30 32.61 72.98 1 6 357
1882 NI AS 21:00:00 TS 33.03 72.99 0 0 _________PP___ -1 33.20 73.00 TC 30 32.91 72.98 1 6 2
1882 NI AS 1882-09-15 00:00:00 TS 33.31 72.99 0 0 _________OP___ -1 33.50 73.00 TC 30 33.21 72.99 1 5 0
1882 NI AS 03:00:00 NR 33.50 73.00 0 __________O___ -1 TC 33.50 73.00 1 4 0